createdAt,value
2019-03-19T00:01:16.410Z,2.30
2019-03-19T00:03:48.645Z,2.26
2019-03-19T00:06:21.057Z,2.22
2019-03-19T00:08:53.335Z,2.23
2019-03-19T00:11:25.552Z,2.27
2019-03-19T00:13:57.812Z,2.32
2019-03-19T00:16:30.052Z,2.34
2019-03-19T00:19:02.316Z,2.35
2019-03-19T00:21:34.518Z,2.33
2019-03-19T00:24:06.777Z,2.30
2019-03-19T00:26:39.340Z,2.29
2019-03-19T00:29:11.645Z,2.25
2019-03-19T00:31:43.953Z,2.21
2019-03-19T00:34:16.221Z,2.18
2019-03-19T00:36:48.419Z,2.16
2019-03-19T00:39:20.661Z,2.14
2019-03-19T00:41:53.051Z,2.11
2019-03-19T00:44:26.155Z,2.11
2019-03-19T00:46:58.385Z,2.11
2019-03-19T00:49:30.644Z,2.09
2019-03-19T00:52:02.930Z,2.06
2019-03-19T00:54:37.435Z,2.03
2019-03-19T00:57:09.697Z,2.01
2019-03-19T00:59:42.051Z,2.01
2019-03-19T01:02:14.304Z,2.00
2019-03-19T01:04:46.529Z,1.95
2019-03-19T01:07:18.800Z,1.92
2019-03-19T01:09:51.131Z,1.91
2019-03-19T01:12:23.364Z,1.92
2019-03-19T01:14:55.599Z,1.95
2019-03-19T01:17:27.940Z,1.96
2019-03-19T01:20:00.382Z,1.95
2019-03-19T01:22:35.029Z,1.93
2019-03-19T01:25:07.020Z,1.92
2019-03-19T01:27:39.265Z,1.93
2019-03-19T01:30:11.541Z,1.95
2019-03-19T01:32:43.871Z,2.08
2019-03-19T01:35:16.104Z,2.27
2019-03-19T01:37:48.314Z,2.53
2019-03-19T01:40:20.645Z,2.72
2019-03-19T01:42:53.054Z,2.79
2019-03-19T01:45:25.521Z,2.85
2019-03-19T01:47:57.723Z,2.95
2019-03-19T01:50:29.939Z,3.00
2019-03-19T01:53:02.190Z,3.00
2019-03-19T01:55:36.047Z,2.96
2019-03-19T01:58:08.318Z,2.83
2019-03-19T02:00:42.354Z,2.74
2019-03-19T02:03:14.641Z,2.67
2019-03-19T02:05:46.872Z,2.63
2019-03-19T02:08:19.160Z,2.53
2019-03-19T02:10:51.476Z,2.39
2019-03-19T02:13:23.777Z,2.27
2019-03-19T02:15:55.977Z,2.18
2019-03-19T02:18:28.196Z,2.13
2019-03-19T02:21:00.482Z,2.08
2019-03-19T02:23:32.793Z,2.00
2019-03-19T02:26:15.558Z,1.96
2019-03-19T02:28:39.029Z,1.91
2019-03-19T02:31:12.391Z,1.87
2019-03-19T02:33:44.621Z,1.83
2019-03-19T02:36:16.938Z,1.82
2019-03-19T02:38:49.390Z,1.79
2019-03-19T02:41:22.673Z,1.77
2019-03-19T02:43:55.116Z,1.74
2019-03-19T02:46:27.358Z,1.70
2019-03-19T02:48:59.605Z,1.67
2019-03-19T02:51:31.952Z,1.68
2019-03-19T02:54:04.341Z,1.66
2019-03-19T02:56:36.695Z,1.64
2019-03-19T02:59:08.911Z,1.61
2019-03-19T03:01:41.138Z,1.59
2019-03-19T03:04:13.435Z,1.59
2019-03-19T03:06:45.544Z,1.59
2019-03-19T03:09:17.801Z,1.58
2019-03-19T03:11:50.090Z,1.55
2019-03-19T03:14:22.508Z,1.53
2019-03-19T03:16:54.759Z,1.50
2019-03-19T03:19:29.076Z,1.48
2019-03-19T03:22:02.465Z,1.48
2019-03-19T03:24:34.662Z,1.48
2019-03-19T03:27:06.913Z,1.48
2019-03-19T03:29:38.997Z,1.47
2019-03-19T03:32:11.235Z,1.44
2019-03-19T03:34:43.559Z,1.43
2019-03-19T03:37:15.761Z,1.43
2019-03-19T03:39:48.109Z,1.43
2019-03-19T03:42:20.372Z,1.42
2019-03-19T03:44:52.682Z,1.41
2019-03-19T03:47:24.998Z,1.38
2019-03-19T03:49:57.472Z,1.39
2019-03-19T03:52:30.803Z,1.34
2019-03-19T03:55:03.014Z,1.31
2019-03-19T03:57:35.381Z,1.30
2019-03-19T04:00:07.639Z,1.30
2019-03-19T04:02:39.924Z,1.27
2019-03-19T04:05:12.234Z,1.29
2019-03-19T04:07:44.540Z,1.27
2019-03-19T04:10:16.957Z,1.26
2019-03-19T04:12:49.214Z,1.24
2019-03-19T04:15:21.454Z,1.22
2019-03-19T04:17:53.887Z,1.20
2019-03-19T04:20:26.121Z,1.21
2019-03-19T04:22:58.423Z,1.20
2019-03-19T04:25:30.631Z,1.19
2019-03-19T04:28:02.901Z,1.18
2019-03-19T04:30:35.322Z,1.17
2019-03-19T04:33:07.588Z,1.17
2019-03-19T04:35:42.092Z,1.15
2019-03-19T04:38:14.077Z,1.17
2019-03-19T04:40:46.307Z,1.16
2019-03-19T04:43:18.607Z,1.15
2019-03-19T04:45:50.841Z,1.14
2019-03-19T04:48:25.256Z,1.14
2019-03-19T04:50:58.601Z,1.12
2019-03-19T04:53:30.854Z,1.13
2019-03-19T04:56:03.120Z,1.13
2019-03-19T04:58:35.618Z,1.13
2019-03-19T05:01:07.890Z,1.15
2019-03-19T05:03:40.138Z,1.18
2019-03-19T05:06:12.591Z,1.18
2019-03-19T05:08:44.904Z,1.17
2019-03-19T05:11:17.154Z,1.15
2019-03-19T05:13:49.399Z,1.16
2019-03-19T05:16:21.644Z,1.16
2019-03-19T05:18:54.995Z,1.14
2019-03-19T05:21:27.748Z,1.14
2019-03-19T05:24:00.248Z,1.14
2019-03-19T05:26:34.852Z,1.14
2019-03-19T05:29:07.274Z,1.13
2019-03-19T05:31:39.589Z,1.11
2019-03-19T05:34:11.783Z,1.09
2019-03-19T05:36:44.037Z,1.09
2019-03-19T05:39:16.526Z,1.11
2019-03-19T05:41:48.749Z,1.12
2019-03-19T05:44:21.047Z,1.18
2019-03-19T05:46:53.591Z,1.20
2019-03-19T05:49:25.887Z,1.20
2019-03-19T05:51:58.105Z,1.22
2019-03-19T05:54:30.414Z,1.23
2019-03-19T05:57:03.839Z,1.22
2019-03-19T05:59:36.130Z,1.23
2019-03-19T06:02:08.414Z,1.25
2019-03-19T06:04:40.690Z,1.27
2019-03-19T06:07:13.044Z,1.33
2019-03-19T06:09:45.427Z,1.40
2019-03-19T06:12:17.714Z,1.48
2019-03-19T06:14:50.051Z,1.55
2019-03-19T06:17:22.448Z,1.63
2019-03-19T06:19:54.658Z,1.70
2019-03-19T06:22:27.065Z,1.79
2019-03-19T06:24:59.662Z,1.89
2019-03-19T06:27:32.021Z,1.99
2019-03-19T06:30:04.591Z,2.11
2019-03-19T06:32:37.197Z,2.22
2019-03-19T06:35:09.645Z,2.36
2019-03-19T06:37:42.148Z,2.49
2019-03-19T06:40:14.873Z,2.64
2019-03-19T06:42:50.407Z,2.80
2019-03-19T06:45:23.272Z,2.98
2019-03-19T06:47:55.917Z,3.12
2019-03-19T06:50:28.426Z,3.26
2019-03-19T06:53:00.722Z,3.41
2019-03-19T06:55:33.713Z,3.60
2019-03-19T06:58:10.934Z,3.80
2019-03-19T07:00:40.564Z,4.01
2019-03-19T07:03:12.947Z,4.19
2019-03-19T07:05:45.330Z,4.38
2019-03-19T07:08:17.639Z,4.56
2019-03-19T07:10:50.082Z,4.76
2019-03-19T07:13:22.392Z,4.89
2019-03-19T07:15:56.956Z,4.96
2019-03-19T07:18:29.218Z,5.07
2019-03-19T07:21:01.352Z,5.18
2019-03-19T07:23:33.607Z,5.30
2019-03-19T07:26:05.881Z,5.40
2019-03-19T07:28:38.644Z,5.50
2019-03-19T07:31:11.716Z,5.57
2019-03-19T07:33:44.015Z,5.64
2019-03-19T07:36:16.348Z,5.70
2019-03-19T07:38:48.632Z,5.79
2019-03-19T07:41:20.867Z,5.90
2019-03-19T07:43:53.103Z,5.96
2019-03-19T07:46:25.424Z,6.03
2019-03-19T07:48:58.928Z,6.13
2019-03-19T07:51:31.522Z,6.20
2019-03-19T07:54:03.937Z,6.28
2019-03-19T07:56:36.277Z,6.37
2019-03-19T07:59:08.624Z,6.48
2019-03-19T08:01:41.073Z,6.54
2019-03-19T08:04:13.560Z,6.59
2019-03-19T08:06:46.034Z,6.67
2019-03-19T08:09:18.349Z,6.75
2019-03-19T08:11:50.540Z,6.83
2019-03-19T08:14:22.963Z,6.93
2019-03-19T08:16:55.218Z,6.99
2019-03-19T08:19:28.296Z,7.02
2019-03-19T08:22:00.507Z,7.09
2019-03-19T08:24:32.809Z,7.20
2019-03-19T08:27:05.091Z,7.35
2019-03-19T08:29:37.859Z,7.52
2019-03-19T08:32:10.138Z,7.70
2019-03-19T08:34:42.368Z,7.84
2019-03-19T08:37:15.648Z,8.00
2019-03-19T08:39:47.914Z,8.15
2019-03-19T08:42:20.162Z,8.28
2019-03-19T08:44:52.542Z,8.40
2019-03-19T08:47:24.943Z,8.57
2019-03-19T08:49:57.392Z,8.72
2019-03-19T08:52:29.708Z,8.85
2019-03-19T08:55:01.956Z,8.94
2019-03-19T08:57:34.562Z,9.02
2019-03-19T09:00:06.887Z,9.09
2019-03-19T09:02:40.317Z,9.16
2019-03-19T09:05:12.751Z,9.22
2019-03-19T09:07:45.107Z,9.34
2019-03-19T09:10:17.313Z,9.39
2019-03-19T09:12:49.546Z,9.43
2019-03-19T09:15:21.922Z,9.52
2019-03-19T09:17:54.214Z,9.64
2019-03-19T09:20:26.473Z,9.76
2019-03-19T09:22:58.744Z,9.94
2019-03-19T09:25:31.063Z,10.15
2019-03-19T09:28:03.381Z,10.27
2019-03-19T09:30:36.055Z,10.36
2019-03-19T09:33:09.455Z,10.41
2019-03-19T09:35:41.784Z,10.45
2019-03-19T09:38:14.484Z,10.47
2019-03-19T09:40:48.050Z,10.51
2019-03-19T09:43:20.435Z,10.63
2019-03-19T09:45:52.663Z,10.70
2019-03-19T09:48:24.915Z,10.79
2019-03-19T09:50:57.209Z,10.90
2019-03-19T09:53:29.505Z,11.03
2019-03-19T09:56:01.744Z,11.16
2019-03-19T09:58:34.381Z,11.18
2019-03-19T10:01:06.735Z,11.14
2019-03-19T10:03:39.053Z,11.11
2019-03-19T10:06:14.389Z,11.06
2019-03-19T10:08:45.454Z,10.98
2019-03-19T10:11:17.724Z,11.08
2019-03-19T10:13:50.034Z,11.14
2019-03-19T10:16:22.354Z,11.29
2019-03-19T10:18:54.558Z,11.65
2019-03-19T10:21:26.826Z,12.18
2019-03-19T10:23:58.949Z,12.51
2019-03-19T10:26:31.288Z,12.31
2019-03-19T10:29:03.703Z,12.36
2019-03-19T10:31:35.870Z,12.37
2019-03-19T10:34:08.140Z,12.27
2019-03-19T10:36:40.422Z,11.96
2019-03-19T10:39:12.528Z,11.59
2019-03-19T10:41:44.847Z,11.39
2019-03-19T10:44:17.217Z,11.38
2019-03-19T10:46:49.478Z,11.28
2019-03-19T10:49:21.742Z,11.08
2019-03-19T10:51:54.005Z,10.96
2019-03-19T10:54:26.311Z,11.10
2019-03-19T10:56:58.589Z,11.02
2019-03-19T10:59:30.943Z,11.06
2019-03-19T11:02:03.241Z,11.15
2019-03-19T11:04:37.875Z,11.24
2019-03-19T11:07:10.133Z,11.29
2019-03-19T11:09:42.586Z,11.37
2019-03-19T11:12:14.692Z,11.21
2019-03-19T11:14:47.302Z,11.09
2019-03-19T11:17:19.632Z,11.14
2019-03-19T11:19:51.876Z,11.14
2019-03-19T11:22:24.027Z,11.30
2019-03-19T11:24:56.254Z,11.38
2019-03-19T11:27:28.655Z,11.41
2019-03-19T11:30:00.991Z,11.44
2019-03-19T11:32:34.598Z,11.34
2019-03-19T11:35:06.990Z,11.57
2019-03-19T11:37:39.224Z,11.81
2019-03-19T11:40:11.469Z,12.05
2019-03-19T11:42:43.582Z,12.48
2019-03-19T11:45:16.006Z,12.68
2019-03-19T11:47:48.292Z,13.24
2019-03-19T11:50:20.640Z,14.66
2019-03-19T11:52:52.957Z,15.29
2019-03-19T11:55:25.279Z,14.95
2019-03-19T11:57:57.990Z,14.63
2019-03-19T12:00:30.488Z,14.76
2019-03-19T12:03:12.177Z,16.67
2019-03-19T12:05:36.764Z,17.90
2019-03-19T12:08:09.003Z,18.48
2019-03-19T12:10:41.418Z,18.90
2019-03-19T12:13:13.777Z,18.65
2019-03-19T12:15:46.263Z,19.36
2019-03-19T12:18:18.431Z,19.76
2019-03-19T12:20:50.681Z,20.03
2019-03-19T12:23:23.102Z,20.37
2019-03-19T12:25:55.514Z,20.70
2019-03-19T12:28:27.830Z,21.30
2019-03-19T12:31:00.196Z,21.60
2019-03-19T12:33:40.398Z,21.40
2019-03-19T12:36:06.591Z,19.94
2019-03-19T12:38:38.852Z,20.49
2019-03-19T12:41:11.312Z,21.18
2019-03-19T12:43:43.639Z,21.80
2019-03-19T12:46:15.909Z,22.65
2019-03-19T12:48:48.318Z,22.98
2019-03-19T12:51:20.703Z,23.33
2019-03-19T12:53:53.266Z,23.25
2019-03-19T12:56:26.769Z,21.79
2019-03-19T12:58:59.066Z,22.09
2019-03-19T13:01:31.594Z,21.28
2019-03-19T13:04:03.871Z,20.87
2019-03-19T13:06:36.129Z,21.13
2019-03-19T13:09:08.364Z,21.38
2019-03-19T13:11:40.999Z,21.93
2019-03-19T13:14:13.379Z,22.16
2019-03-19T13:16:45.657Z,21.66
2019-03-19T13:19:17.970Z,21.82
2019-03-19T13:21:50.216Z,21.74
2019-03-19T13:24:22.848Z,20.18
2019-03-19T13:26:55.226Z,18.14
2019-03-19T13:29:27.694Z,16.40
2019-03-19T13:32:00.277Z,15.32
2019-03-19T13:34:32.611Z,14.56
2019-03-19T13:37:06.123Z,14.02
2019-03-19T13:39:38.467Z,13.67
2019-03-19T13:42:10.687Z,13.41
2019-03-19T13:44:43.025Z,13.17
2019-03-19T13:47:15.331Z,12.98
2019-03-19T13:49:47.588Z,12.90
2019-03-19T13:52:19.837Z,12.75
2019-03-19T13:54:52.062Z,12.57
2019-03-19T13:57:25.561Z,12.49
2019-03-19T13:59:57.834Z,12.51
2019-03-19T14:02:30.043Z,12.39
2019-03-19T14:05:02.380Z,12.24
2019-03-19T14:07:34.902Z,12.17
2019-03-19T14:10:07.078Z,11.95
2019-03-19T14:12:39.627Z,11.82
2019-03-19T14:15:12.153Z,11.63
2019-03-19T14:17:44.371Z,11.43
2019-03-19T14:20:16.773Z,11.26
2019-03-19T14:22:49.018Z,11.14
2019-03-19T14:25:21.426Z,11.11
2019-03-19T14:27:53.719Z,11.05
2019-03-19T14:30:26.154Z,10.85
2019-03-19T14:32:58.359Z,10.76
2019-03-19T14:35:37.294Z,10.71
2019-03-19T14:38:05.004Z,10.74
2019-03-19T14:40:37.474Z,10.85
2019-03-19T14:43:10.818Z,11.00
2019-03-19T14:45:43.149Z,11.12
2019-03-19T14:48:15.476Z,11.30
2019-03-19T14:50:47.817Z,11.49
2019-03-19T14:53:20.114Z,11.57
2019-03-19T14:55:54.458Z,11.46
2019-03-19T14:58:27.103Z,11.39
2019-03-19T15:00:59.461Z,11.46
2019-03-19T15:03:32.703Z,11.63
2019-03-19T15:06:05.150Z,11.81
2019-03-19T15:08:38.013Z,11.93
2019-03-19T15:11:10.370Z,12.18
2019-03-19T15:13:42.734Z,12.59
2019-03-19T15:16:15.299Z,12.98
2019-03-19T15:18:48.090Z,13.33
2019-03-19T15:21:20.405Z,13.66
2019-03-19T15:23:52.912Z,14.21
2019-03-19T15:26:25.414Z,14.84
2019-03-19T15:28:57.986Z,15.01
2019-03-19T15:31:30.341Z,15.91
2019-03-19T15:34:03.008Z,16.06
2019-03-19T15:36:35.441Z,16.14
2019-03-19T15:39:08.175Z,15.89
2019-03-19T15:41:40.615Z,16.77
2019-03-19T15:44:15.375Z,16.87
2019-03-19T15:46:49.026Z,16.80
2019-03-19T15:49:21.548Z,16.26
2019-03-19T15:51:54.214Z,15.73
2019-03-19T15:54:26.838Z,15.26
2019-03-19T15:56:59.368Z,14.89
2019-03-19T15:59:31.765Z,14.99
2019-03-19T16:02:04.471Z,15.40
2019-03-19T16:04:37.003Z,15.12
2019-03-19T16:07:09.431Z,15.04
2019-03-19T16:09:41.964Z,15.30
2019-03-19T16:12:14.333Z,16.09
2019-03-19T16:14:46.867Z,16.98
2019-03-19T16:17:19.340Z,17.74
2019-03-19T16:19:51.835Z,18.77
2019-03-19T16:22:24.343Z,18.77
2019-03-19T16:24:56.583Z,19.22
2019-03-19T16:27:29.089Z,19.85
2019-03-19T16:30:01.499Z,20.31
2019-03-19T16:32:35.283Z,20.54
2019-03-19T16:35:07.689Z,20.32
2019-03-19T16:37:39.954Z,18.99
2019-03-19T16:40:12.325Z,17.61
2019-03-19T16:42:44.723Z,16.34
2019-03-19T16:45:18.594Z,15.40
2019-03-19T16:47:51.194Z,14.68
2019-03-19T16:50:23.580Z,14.06
2019-03-19T16:52:56.782Z,13.55
2019-03-19T16:55:29.315Z,13.15
2019-03-19T16:58:02.243Z,12.83
2019-03-19T17:00:34.551Z,12.57
2019-03-19T17:03:07.370Z,12.33
2019-03-19T17:05:39.862Z,12.16
2019-03-19T17:08:13.266Z,12.00
2019-03-19T17:10:45.607Z,11.89
2019-03-19T17:13:17.902Z,11.81
2019-03-19T17:15:50.309Z,11.72
2019-03-19T17:18:22.650Z,11.60
2019-03-19T17:20:57.060Z,11.48
2019-03-19T17:23:30.568Z,11.38
2019-03-19T17:26:02.881Z,11.32
2019-03-19T17:28:35.397Z,11.21
2019-03-19T17:31:07.694Z,11.08
2019-03-19T17:33:39.844Z,10.97
2019-03-19T17:36:12.341Z,10.84
2019-03-19T17:38:44.577Z,10.72
2019-03-19T17:41:16.677Z,10.63
2019-03-19T17:43:49.068Z,10.55
2019-03-19T17:46:21.298Z,10.48
2019-03-19T17:48:53.551Z,10.42
2019-03-19T17:51:25.817Z,10.42
2019-03-19T17:53:57.935Z,10.38
2019-03-19T17:56:48.385Z,10.28
2019-03-19T17:59:20.901Z,10.19
2019-03-19T18:01:53.257Z,10.15
2019-03-19T18:04:25.469Z,10.11
2019-03-19T18:06:58.870Z,10.04
2019-03-19T18:09:31.181Z,9.98
2019-03-19T18:12:03.393Z,9.93
2019-03-19T18:14:37.560Z,9.91
2019-03-19T18:17:10.976Z,9.88
2019-03-19T18:19:43.373Z,9.81
2019-03-19T18:22:15.638Z,9.77
2019-03-19T18:24:47.904Z,9.74
2019-03-19T18:27:20.130Z,9.69
2019-03-19T18:29:52.471Z,9.63
2019-03-19T18:32:34.657Z,9.59
2019-03-19T18:34:58.980Z,9.51
2019-03-19T18:37:31.244Z,9.41
2019-03-19T18:40:03.504Z,9.36
2019-03-19T18:42:35.813Z,9.29
2019-03-19T18:45:08.293Z,9.22
2019-03-19T18:47:40.652Z,9.14
2019-03-19T18:50:12.910Z,9.10
2019-03-19T18:52:45.180Z,9.05
2019-03-19T18:55:17.429Z,9.02
2019-03-19T18:57:49.724Z,8.97
2019-03-19T19:00:22.051Z,8.92
2019-03-19T19:02:54.274Z,8.85
2019-03-19T19:05:26.597Z,8.81
2019-03-19T19:07:59.247Z,8.78
2019-03-19T19:10:31.474Z,8.74
2019-03-19T19:13:03.700Z,8.69
2019-03-19T19:15:35.961Z,8.66
2019-03-19T19:18:08.195Z,8.61
2019-03-19T19:20:41.821Z,8.60
2019-03-19T19:23:14.284Z,8.57
2019-03-19T19:25:46.560Z,8.53
2019-03-19T19:28:18.772Z,8.48
2019-03-19T19:30:51.022Z,8.45
2019-03-19T19:33:23.459Z,8.45
2019-03-19T19:35:55.691Z,8.39
2019-03-19T19:38:28.162Z,8.31
2019-03-19T19:41:00.780Z,8.27
2019-03-19T19:43:33.039Z,8.23
2019-03-19T19:46:05.291Z,8.20
2019-03-19T19:48:38.731Z,8.19
2019-03-19T19:51:10.771Z,8.19
2019-03-19T19:53:43.093Z,8.15
2019-03-19T19:56:15.382Z,8.12
2019-03-19T19:58:47.718Z,8.09
2019-03-19T20:01:19.989Z,8.06
2019-03-19T20:03:52.054Z,7.97
2019-03-19T20:06:24.399Z,7.91
2019-03-19T20:08:56.799Z,7.83
2019-03-19T20:11:29.140Z,7.76
2019-03-19T20:14:01.406Z,7.68
2019-03-19T20:16:33.646Z,7.64
2019-03-19T20:19:05.869Z,7.60
2019-03-19T20:21:38.142Z,7.56
2019-03-19T20:24:10.527Z,7.52
2019-03-19T20:26:43.507Z,7.48
2019-03-19T20:29:15.919Z,7.43
2019-03-19T20:31:52.286Z,7.36
2019-03-19T20:34:24.577Z,7.31
2019-03-19T20:36:56.932Z,7.28
2019-03-19T20:39:29.310Z,7.26
2019-03-19T20:42:01.738Z,7.23
2019-03-19T20:44:34.033Z,7.19
2019-03-19T20:47:06.357Z,7.20
2019-03-19T20:49:47.323Z,7.20
2019-03-19T20:52:12.669Z,7.17
2019-03-19T20:54:44.925Z,7.12
2019-03-19T20:57:17.282Z,7.12
2019-03-19T20:59:49.795Z,7.10
2019-03-19T21:02:22.132Z,7.10
2019-03-19T21:04:54.328Z,7.11
2019-03-19T21:07:27.752Z,7.12
2019-03-19T21:09:59.873Z,7.13
2019-03-19T21:12:32.399Z,7.10
2019-03-19T21:15:04.724Z,7.07
2019-03-19T21:17:37.222Z,7.06
2019-03-19T21:20:09.620Z,7.07
2019-03-19T21:22:41.965Z,7.07
2019-03-19T21:25:14.294Z,7.08
2019-03-19T21:27:47.753Z,7.10
2019-03-19T21:30:20.006Z,7.06
2019-03-19T21:32:52.284Z,6.99
2019-03-19T21:35:24.589Z,6.96
2019-03-19T21:37:57.932Z,6.96
2019-03-19T21:40:30.242Z,6.96
2019-03-19T21:43:02.410Z,6.95
2019-03-19T21:45:34.687Z,6.93
2019-03-19T21:48:07.206Z,6.90
2019-03-19T21:50:39.518Z,6.88
2019-03-19T21:53:11.784Z,6.89
2019-03-19T21:55:44.125Z,6.93
2019-03-19T21:58:16.532Z,6.97
2019-03-19T22:00:48.659Z,6.96
2019-03-19T22:03:21.122Z,6.96
2019-03-19T22:05:53.551Z,6.96
2019-03-19T22:08:26.193Z,6.97
2019-03-19T22:10:58.619Z,6.97
2019-03-19T22:13:30.831Z,6.99
2019-03-19T22:16:03.152Z,7.01
2019-03-19T22:18:35.612Z,7.00
2019-03-19T22:21:07.977Z,7.04
2019-03-19T22:23:41.949Z,7.11
2019-03-19T22:26:14.300Z,7.19
2019-03-19T22:28:46.593Z,7.27
2019-03-19T22:31:18.852Z,7.37
2019-03-19T22:33:52.112Z,7.46
2019-03-19T22:36:24.591Z,7.50
2019-03-19T22:38:56.954Z,7.56
2019-03-19T22:41:29.443Z,7.56
2019-03-19T22:44:01.781Z,7.49
2019-03-19T22:46:34.117Z,7.41
2019-03-19T22:49:06.426Z,7.32
2019-03-19T22:51:38.804Z,7.22
2019-03-19T22:54:11.186Z,7.15
2019-03-19T22:56:43.524Z,7.12
2019-03-19T22:59:15.799Z,7.09
2019-03-19T23:01:48.037Z,7.08
2019-03-19T23:04:27.134Z,7.06
2019-03-19T23:06:55.374Z,7.02
2019-03-19T23:09:27.760Z,6.98
2019-03-19T23:12:00.159Z,6.96
2019-03-19T23:14:33.737Z,6.93
2019-03-19T23:17:07.411Z,6.90
2019-03-19T23:19:39.874Z,6.87
2019-03-19T23:22:12.100Z,6.92
2019-03-19T23:24:44.153Z,6.96
2019-03-19T23:27:16.529Z,6.98
2019-03-19T23:29:49.308Z,7.00
2019-03-19T23:32:24.770Z,6.96
2019-03-19T23:34:56.547Z,6.98
2019-03-19T23:37:29.462Z,7.03
2019-03-19T23:40:02.318Z,7.12
2019-03-19T23:42:36.158Z,7.19
2019-03-19T23:45:08.600Z,7.31
2019-03-19T23:47:40.884Z,7.44
2019-03-19T23:50:13.082Z,7.57
2019-03-19T23:52:45.675Z,7.67
2019-03-19T23:55:19.043Z,7.78
2019-03-19T23:57:51.807Z,7.87
